createdAt,value
2023-03-24T00:00:35.636Z,12.30
2023-03-24T00:03:03.088Z,12.20
2023-03-24T00:05:31.161Z,12.00
2023-03-24T00:08:03.108Z,12.00
2023-03-24T00:10:42.349Z,11.90
2023-03-24T00:13:09.605Z,11.90
2023-03-24T00:15:36.912Z,11.80
2023-03-24T00:18:05.080Z,11.70
2023-03-24T00:20:33.097Z,11.70
2023-03-24T00:23:00.191Z,11.60
2023-03-24T00:25:36.408Z,11.70
2023-03-24T00:28:07.272Z,11.80
2023-03-24T00:30:35.232Z,11.80
2023-03-24T00:33:02.576Z,11.90
2023-03-24T00:35:31.165Z,11.90
2023-03-24T00:38:00.511Z,11.90
2023-03-24T00:40:28.467Z,11.80
2023-03-24T00:42:55.593Z,11.90
2023-03-24T00:45:25.907Z,11.80
2023-03-24T00:47:58.543Z,11.80
2023-03-24T00:50:26.896Z,11.70
2023-03-24T00:52:55.907Z,11.60
2023-03-24T00:55:23.462Z,11.60
2023-03-24T00:57:51.392Z,11.60
2023-03-24T01:00:24.272Z,11.50
2023-03-24T01:02:56.360Z,11.40
2023-03-24T01:05:28.765Z,11.30
2023-03-24T01:08:03.580Z,11.20
2023-03-24T01:10:34.918Z,11.10
2023-03-24T01:13:04.125Z,11.00
2023-03-24T01:15:34.471Z,10.90
2023-03-24T01:18:02.437Z,10.90
2023-03-24T01:20:34.315Z,10.80
2023-03-24T01:23:05.272Z,10.90
2023-03-24T01:25:33.990Z,10.90
2023-03-24T01:28:01.653Z,10.90
2023-03-24T01:30:30.607Z,10.90
2023-03-24T01:32:58.272Z,10.90
2023-03-24T01:35:29.395Z,10.90
2023-03-24T01:37:59.292Z,10.90
2023-03-24T01:40:32.636Z,10.90
2023-03-24T01:43:01.265Z,10.90
2023-03-24T01:45:44.930Z,11.00
2023-03-24T01:48:25.114Z,11.00
2023-03-24T01:51:02.710Z,11.00
2023-03-24T01:53:33.699Z,11.00
2023-03-24T01:56:03.201Z,11.10
2023-03-24T01:58:33.225Z,11.10
2023-03-24T02:01:00.427Z,11.10
2023-03-24T02:03:30.318Z,11.20
2023-03-24T02:05:57.809Z,11.10
2023-03-24T02:08:33.452Z,11.20
2023-03-24T02:11:02.586Z,11.30
2023-03-24T02:13:30.193Z,11.40
2023-03-24T02:16:07.673Z,11.40
2023-03-24T02:18:57.469Z,11.50
2023-03-24T02:21:59.655Z,11.60
2023-03-24T02:25:12.059Z,11.70
2023-03-24T02:28:32.855Z,11.80
2023-03-24T02:31:34.334Z,11.90
2023-03-24T02:34:32.186Z,11.90
2023-03-24T02:37:58.243Z,11.90
2023-03-24T02:40:44.783Z,11.90
2023-03-24T02:44:13.299Z,12.00
2023-03-24T02:46:51.485Z,12.10
2023-03-24T02:49:30.653Z,12.10
2023-03-24T02:52:21.849Z,12.20
2023-03-24T02:55:12.641Z,12.40
2023-03-24T02:58:02.565Z,12.70
2023-03-24T03:00:42.062Z,13.20
2023-03-24T03:03:31.884Z,13.40
2023-03-24T03:06:07.380Z,13.70
2023-03-24T03:08:37.027Z,13.90
2023-03-24T03:11:08.213Z,14.20
2023-03-24T03:13:41.097Z,14.10
2023-03-24T03:16:22.683Z,14.10
2023-03-24T03:18:55.884Z,14.20
2023-03-24T03:21:26.560Z,14.30
2023-03-24T03:24:09.690Z,14.40
2023-03-24T03:26:37.269Z,14.40
2023-03-24T03:29:16.861Z,14.50
2023-03-24T03:32:07.520Z,14.50
2023-03-24T03:34:50.501Z,14.50
2023-03-24T03:38:17.658Z,14.50
2023-03-24T03:41:00.771Z,14.40
2023-03-24T03:43:28.842Z,14.40
2023-03-24T03:45:56.336Z,14.30
2023-03-24T03:48:26.699Z,14.30
2023-03-24T03:51:10.308Z,14.40
2023-03-24T03:54:09.664Z,14.50
2023-03-24T03:56:37.912Z,14.50
2023-03-24T03:59:06.488Z,14.50
2023-03-24T04:01:37.454Z,14.40
2023-03-24T04:04:40.830Z,14.50
2023-03-24T04:07:51.765Z,14.50
2023-03-24T04:10:33.565Z,14.70
2023-03-24T04:13:41.315Z,14.80
2023-03-24T04:16:39.542Z,14.70
2023-03-24T04:19:16.118Z,14.60
2023-03-24T04:22:15.647Z,14.60
2023-03-24T04:25:00.196Z,14.50
2023-03-24T04:27:57.111Z,14.40
2023-03-24T04:30:43.112Z,14.30
2023-03-24T04:33:22.456Z,14.30
2023-03-24T04:36:06.834Z,14.20
2023-03-24T04:38:38.402Z,14.10
2023-03-24T04:41:06.236Z,14.10
2023-03-24T04:43:38.382Z,14.00
2023-03-24T04:46:09.038Z,14.00
2023-03-24T04:48:36.652Z,13.90
2023-03-24T04:51:04.843Z,13.80
2023-03-24T04:53:31.953Z,13.70
2023-03-24T04:56:07.739Z,13.60
2023-03-24T04:58:34.837Z,13.60
2023-03-24T05:01:03.384Z,13.60
2023-03-24T05:03:30.617Z,13.50
2023-03-24T05:05:59.280Z,13.20
2023-03-24T05:08:26.426Z,13.00
2023-03-24T05:10:53.581Z,12.80
2023-03-24T05:13:20.901Z,12.50
2023-03-24T05:15:48.027Z,12.30
2023-03-24T05:18:15.140Z,12.10
2023-03-24T05:20:42.177Z,11.90
2023-03-24T05:23:09.379Z,11.80
2023-03-24T05:25:36.515Z,11.70
2023-03-24T05:28:03.668Z,11.60
2023-03-24T05:30:30.997Z,11.50
2023-03-24T05:32:58.197Z,11.40
2023-03-24T05:35:25.431Z,11.30
2023-03-24T05:37:52.636Z,11.30
2023-03-24T05:40:19.823Z,11.40
2023-03-24T05:42:52.000Z,11.40
2023-03-24T05:45:19.684Z,11.40
2023-03-24T05:47:48.366Z,11.50
2023-03-24T05:50:15.481Z,11.40
2023-03-24T05:52:42.686Z,11.40
2023-03-24T05:55:11.057Z,11.30
2023-03-24T05:57:38.523Z,11.20
2023-03-24T06:00:15.218Z,11.20
2023-03-24T06:02:46.356Z,11.30
2023-03-24T06:05:13.711Z,11.50
2023-03-24T06:07:42.565Z,11.50
2023-03-24T06:10:11.516Z,11.60
2023-03-24T06:12:41.420Z,11.60
2023-03-24T06:15:09.912Z,11.70
2023-03-24T06:17:42.681Z,11.70
2023-03-24T06:20:18.577Z,11.90
2023-03-24T06:22:48.007Z,11.90
2023-03-24T06:25:18.249Z,11.90
2023-03-24T06:27:46.357Z,11.90
2023-03-24T06:30:16.471Z,11.90
2023-03-24T06:32:47.977Z,12.00
2023-03-24T06:35:17.296Z,12.10
2023-03-24T06:37:45.040Z,12.10
2023-03-24T06:40:15.997Z,12.10
2023-03-24T06:42:43.212Z,12.10
2023-03-24T06:45:10.928Z,12.10
2023-03-24T06:47:38.349Z,12.00
2023-03-24T06:50:07.230Z,12.00
2023-03-24T06:52:35.696Z,12.00
2023-03-24T06:55:03.256Z,12.10
2023-03-24T06:57:30.679Z,12.10
2023-03-24T06:59:57.855Z,12.10
2023-03-24T07:02:25.078Z,12.20
2023-03-24T07:04:54.191Z,12.30
2023-03-24T07:07:53.318Z,12.30
2023-03-24T07:10:10.613Z,12.30
2023-03-24T07:12:37.741Z,12.20
2023-03-24T07:15:05.329Z,12.20
2023-03-24T07:17:32.464Z,12.20
2023-03-24T07:19:59.721Z,12.10
2023-03-24T07:22:27.789Z,12.10
2023-03-24T07:24:56.510Z,12.00
2023-03-24T07:27:23.739Z,12.10
2023-03-24T07:29:50.837Z,12.10
2023-03-24T07:32:18.773Z,12.20
2023-03-24T07:34:46.409Z,12.20
2023-03-24T07:37:13.577Z,12.20
2023-03-24T07:39:41.851Z,12.20
2023-03-24T07:42:09.939Z,12.20
2023-03-24T07:44:38.762Z,12.30
2023-03-24T07:47:06.243Z,12.30
2023-03-24T07:49:33.422Z,12.30
2023-03-24T07:52:01.746Z,12.40
2023-03-24T07:54:28.863Z,12.30
2023-03-24T07:56:56.357Z,12.40
2023-03-24T07:59:24.733Z,12.40
2023-03-24T08:01:57.697Z,12.50
2023-03-24T08:04:28.653Z,12.40
2023-03-24T08:06:57.368Z,12.40
2023-03-24T08:09:26.111Z,12.40
2023-03-24T08:11:54.205Z,12.50
2023-03-24T08:14:25.087Z,12.50
2023-03-24T08:16:53.403Z,12.40
2023-03-24T08:19:20.682Z,12.40
2023-03-24T08:21:47.781Z,12.50
2023-03-24T08:24:14.900Z,12.50
2023-03-24T08:26:42.821Z,12.50
2023-03-24T08:29:09.944Z,12.50
2023-03-24T08:31:37.747Z,12.50
2023-03-24T08:34:06.650Z,12.50
2023-03-24T08:36:33.933Z,12.50
2023-03-24T08:39:01.587Z,12.60
2023-03-24T08:41:35.058Z,12.60
2023-03-24T08:44:07.657Z,12.50
2023-03-24T08:46:35.656Z,12.50
2023-03-24T08:49:03.545Z,12.50
2023-03-24T08:51:31.369Z,12.50
2023-03-24T08:53:58.771Z,12.50
2023-03-24T08:56:26.065Z,12.50
2023-03-24T08:58:54.023Z,12.50
2023-03-24T09:01:23.112Z,12.50
2023-03-24T09:03:51.013Z,12.50
2023-03-24T09:06:18.139Z,12.50
2023-03-24T09:08:46.281Z,12.50
2023-03-24T09:11:19.131Z,12.50
2023-03-24T09:13:47.378Z,12.60
2023-03-24T09:16:16.607Z,12.60
2023-03-24T09:18:44.806Z,12.50
2023-03-24T09:21:12.206Z,12.50
2023-03-24T09:23:39.422Z,12.40
2023-03-24T09:26:07.480Z,12.50
2023-03-24T09:28:34.798Z,12.50
2023-03-24T09:31:06.166Z,12.50
2023-03-24T09:33:35.066Z,12.50
2023-03-24T09:36:04.266Z,12.60
2023-03-24T09:38:33.607Z,12.60
2023-03-24T09:41:03.047Z,12.60
2023-03-24T09:43:48.248Z,12.60
2023-03-24T09:46:27.336Z,12.60
2023-03-24T09:48:57.634Z,12.60
2023-03-24T09:51:34.131Z,12.60
2023-03-24T09:54:22.328Z,12.70
2023-03-24T09:56:51.893Z,12.70
2023-03-24T09:59:39.863Z,12.80
2023-03-24T10:02:19.664Z,12.80
2023-03-24T10:04:48.145Z,12.70
2023-03-24T10:07:35.070Z,12.70
2023-03-24T10:10:03.121Z,12.70
2023-03-24T10:15:44.535Z,12.70
2023-03-24T10:18:23.135Z,12.70
2023-03-24T10:21:02.521Z,12.70
2023-03-24T10:23:51.578Z,12.80
2023-03-24T10:26:39.376Z,12.80
2023-03-24T10:29:18.547Z,12.80
2023-03-24T10:32:11.898Z,12.70
2023-03-24T10:34:40.856Z,12.60
2023-03-24T10:37:08.273Z,12.50
2023-03-24T10:39:43.943Z,12.40
2023-03-24T10:42:32.973Z,12.40
2023-03-24T10:45:00.858Z,12.40
2023-03-24T10:47:32.987Z,12.50
2023-03-24T10:50:12.662Z,12.40
2023-03-24T10:52:50.982Z,12.40
2023-03-24T10:55:23.720Z,12.50
2023-03-24T10:57:58.406Z,12.50
2023-03-24T11:00:34.990Z,12.50
2023-03-24T11:03:14.496Z,12.50
2023-03-24T11:05:44.305Z,12.40
2023-03-24T11:08:36.947Z,12.40
2023-03-24T11:11:33.707Z,12.30
2023-03-24T11:14:02.960Z,12.20
2023-03-24T11:16:36.826Z,12.10
2023-03-24T11:19:09.893Z,12.00
2023-03-24T11:21:39.975Z,11.90
2023-03-24T11:24:17.011Z,11.80
2023-03-24T11:27:03.851Z,11.60
2023-03-24T11:29:34.268Z,11.40
2023-03-24T11:32:05.702Z,11.30
2023-03-24T11:34:38.893Z,11.20
2023-03-24T11:37:12.739Z,11.20
2023-03-24T11:39:39.973Z,11.10
2023-03-24T11:42:16.864Z,11.10
2023-03-24T11:44:56.024Z,11.10
2023-03-24T11:47:41.951Z,11.10
2023-03-24T11:50:12.142Z,11.00
2023-03-24T11:52:51.635Z,11.00
2023-03-24T11:55:43.625Z,11.00
2023-03-24T11:58:42.543Z,11.00
2023-03-24T12:01:21.652Z,11.10
2023-03-24T12:04:26.932Z,11.20
2023-03-24T12:07:18.847Z,11.30
2023-03-24T12:10:09.967Z,11.40
2023-03-24T12:13:06.912Z,11.40
2023-03-24T12:16:00.725Z,11.50
2023-03-24T12:18:52.074Z,11.60
2023-03-24T12:22:05.929Z,11.70
2023-03-24T12:25:06.389Z,11.80
2023-03-24T12:28:08.693Z,11.70
2023-03-24T12:31:15.540Z,12.00
2023-03-24T12:33:54.810Z,12.00
2023-03-24T12:36:50.550Z,11.90
2023-03-24T12:40:00.725Z,11.90
2023-03-24T12:42:51.327Z,12.10
2023-03-24T12:45:49.827Z,12.60
2023-03-24T12:48:51.207Z,13.10
2023-03-24T12:52:01.540Z,13.90
2023-03-24T12:55:04.896Z,14.10
2023-03-24T12:57:41.497Z,13.70
2023-03-24T13:00:36.922Z,13.50
2023-03-24T13:03:36.345Z,13.50
2023-03-24T13:06:24.006Z,13.60
2023-03-24T13:09:11.939Z,13.80
2023-03-24T13:12:24.756Z,14.10
2023-03-24T13:15:11.788Z,14.20
2023-03-24T13:17:55.960Z,14.20
2023-03-24T13:20:44.722Z,14.50
2023-03-24T13:23:46.546Z,14.50
2023-03-24T13:27:05.687Z,14.30
2023-03-24T13:30:11.705Z,14.30
2023-03-24T13:32:48.824Z,14.30
2023-03-24T13:35:29.678Z,14.30
2023-03-24T13:38:24.913Z,14.60
2023-03-24T13:40:54.591Z,14.90
2023-03-24T13:43:30.210Z,14.90
2023-03-24T13:46:09.189Z,14.80
2023-03-24T13:48:51.135Z,15.00
2023-03-24T13:51:25.628Z,14.60
2023-03-24T13:53:54.269Z,14.30
2023-03-24T13:56:41.376Z,14.10
2023-03-24T13:59:27.414Z,14.20
2023-03-24T14:03:00.502Z,15.10
2023-03-24T14:05:52.278Z,15.10
2023-03-24T14:08:19.491Z,14.70
2023-03-24T14:10:51.675Z,14.70
2023-03-24T14:13:21.714Z,15.60
2023-03-24T14:15:58.752Z,16.00
2023-03-24T14:18:26.390Z,16.50
2023-03-24T14:20:56.596Z,16.60
2023-03-24T14:23:47.139Z,16.00
2023-03-24T14:26:36.968Z,16.10
2023-03-24T14:29:04.108Z,15.60
2023-03-24T14:31:36.620Z,15.20
2023-03-24T14:34:21.302Z,15.40
2023-03-24T14:37:00.189Z,16.00
2023-03-24T14:39:41.795Z,16.50
2023-03-24T14:42:31.836Z,17.10
2023-03-24T14:45:02.278Z,18.00
2023-03-24T14:47:35.498Z,18.50
2023-03-24T14:50:18.004Z,18.40
2023-03-24T14:52:53.062Z,18.40
2023-03-24T14:55:21.902Z,18.10
2023-03-24T14:57:56.424Z,17.80
2023-03-24T15:00:33.544Z,16.90
2023-03-24T15:03:23.637Z,16.60
2023-03-24T15:05:51.248Z,16.00
2023-03-24T15:08:23.738Z,15.60
2023-03-24T15:11:10.949Z,15.40
2023-03-24T15:13:51.231Z,15.20
2023-03-24T15:16:22.703Z,15.10
2023-03-24T15:19:02.415Z,15.10
2023-03-24T15:21:32.818Z,15.20
2023-03-24T15:24:01.462Z,15.10
2023-03-24T15:26:31.756Z,15.00
2023-03-24T15:29:06.534Z,15.00
2023-03-24T15:31:35.103Z,14.90
2023-03-24T15:34:42.305Z,15.00
2023-03-24T15:37:40.519Z,15.10
2023-03-24T15:40:31.687Z,15.60
2023-03-24T15:43:06.853Z,16.60
2023-03-24T15:45:49.519Z,16.80
2023-03-24T15:48:22.174Z,17.00
2023-03-24T15:51:06.943Z,17.40
2023-03-24T15:53:33.923Z,17.60
2023-03-24T15:56:18.183Z,17.80
2023-03-24T15:58:48.270Z,17.20
2023-03-24T16:01:27.409Z,16.80
2023-03-24T16:03:55.381Z,16.40
2023-03-24T16:06:30.302Z,15.90
2023-03-24T16:09:05.421Z,15.70
2023-03-24T16:11:32.650Z,15.60
2023-03-24T16:14:13.336Z,15.50
2023-03-24T16:16:44.326Z,15.30
2023-03-24T16:19:11.539Z,15.10
2023-03-24T16:21:38.627Z,15.00
2023-03-24T16:24:05.979Z,15.00
2023-03-24T16:26:33.725Z,15.00
2023-03-24T16:29:22.342Z,14.90
2023-03-24T16:31:52.392Z,14.80
2023-03-24T16:34:22.284Z,14.70
2023-03-24T16:36:54.545Z,14.50
2023-03-24T16:39:29.576Z,14.50
2023-03-24T16:41:57.341Z,14.50
2023-03-24T16:44:25.342Z,14.30
2023-03-24T16:46:54.554Z,14.20
2023-03-24T16:49:23.951Z,14.20
2023-03-24T16:51:52.873Z,14.10
2023-03-24T16:54:21.103Z,14.00
2023-03-24T16:56:48.416Z,13.90
2023-03-24T16:59:16.099Z,13.70
2023-03-24T17:01:46.436Z,13.60
2023-03-24T17:04:22.303Z,13.40
2023-03-24T17:06:55.400Z,13.20
2023-03-24T17:09:23.143Z,13.10
2023-03-24T17:11:56.824Z,13.00
2023-03-24T17:14:24.382Z,12.90
2023-03-24T17:16:53.481Z,12.90
2023-03-24T17:19:22.908Z,12.90
2023-03-24T17:22:03.974Z,12.90
2023-03-24T17:24:39.954Z,12.90
2023-03-24T17:27:21.334Z,12.90
2023-03-24T17:29:48.628Z,13.00
2023-03-24T17:32:16.264Z,13.10
2023-03-24T17:34:45.389Z,13.10
2023-03-24T17:37:12.716Z,13.00
2023-03-24T17:39:41.492Z,13.00
2023-03-24T17:42:08.804Z,12.90
2023-03-24T17:44:36.174Z,12.90
2023-03-24T17:47:03.416Z,12.80
2023-03-24T17:49:31.058Z,12.80
2023-03-24T17:51:58.146Z,13.00
2023-03-24T17:54:25.584Z,13.00
2023-03-24T17:56:52.685Z,13.00
2023-03-24T17:59:19.854Z,13.20
2023-03-24T18:01:47.394Z,13.20
2023-03-24T18:04:14.682Z,13.20
2023-03-24T18:06:42.519Z,13.20
2023-03-24T18:09:10.673Z,13.10
2023-03-24T18:11:38.591Z,13.00
2023-03-24T18:14:05.908Z,12.80
2023-03-24T18:16:35.492Z,12.70
2023-03-24T18:19:03.522Z,12.80
2023-03-24T18:21:30.819Z,12.80
2023-03-24T18:23:58.116Z,12.60
2023-03-24T18:26:26.124Z,12.40
2023-03-24T18:28:54.261Z,12.30
2023-03-24T18:31:25.907Z,12.00
2023-03-24T18:33:54.605Z,11.80
2023-03-24T18:36:26.504Z,11.70
2023-03-24T18:38:58.482Z,11.50
2023-03-24T18:41:28.069Z,11.30
2023-03-24T18:43:57.112Z,11.20
2023-03-24T18:46:26.404Z,11.00
2023-03-24T18:48:53.833Z,10.80
2023-03-24T18:51:22.660Z,10.60
2023-03-24T18:53:51.129Z,10.40
2023-03-24T18:56:19.628Z,10.20
2023-03-24T18:58:49.250Z,10.00
2023-03-24T19:01:23.013Z,9.90
2023-03-24T19:03:53.852Z,9.80
2023-03-24T19:06:21.237Z,9.60
2023-03-24T19:08:53.789Z,9.50
2023-03-24T19:11:21.236Z,9.40
2023-03-24T19:13:50.782Z,9.50
2023-03-24T19:16:19.659Z,9.70
2023-03-24T19:18:48.645Z,9.90
2023-03-24T19:21:17.279Z,10.00
2023-03-24T19:23:47.028Z,10.10
2023-03-24T19:26:16.570Z,10.30
2023-03-24T19:28:44.065Z,10.50
2023-03-24T19:31:15.663Z,10.70
2023-03-24T19:33:43.344Z,10.80
2023-03-24T19:36:12.042Z,11.00
2023-03-24T19:38:39.963Z,11.10
2023-03-24T19:41:13.300Z,11.10
2023-03-24T19:43:40.897Z,11.20
2023-03-24T19:46:08.187Z,11.30
2023-03-24T19:48:35.944Z,11.40
2023-03-24T19:51:04.421Z,11.40
2023-03-24T19:53:31.744Z,11.40
2023-03-24T19:55:59.516Z,11.40
2023-03-24T19:58:26.750Z,11.40
2023-03-24T20:00:54.015Z,11.30
2023-03-24T20:03:21.729Z,11.30
2023-03-24T20:05:51.640Z,11.10
2023-03-24T20:08:19.812Z,11.00
2023-03-24T20:10:47.188Z,11.00
2023-03-24T20:13:14.569Z,10.90
2023-03-24T20:15:41.724Z,10.90
2023-03-24T20:18:10.670Z,10.90
2023-03-24T20:20:37.964Z,10.90
2023-03-24T20:23:05.475Z,10.90
2023-03-24T20:25:32.598Z,10.90
2023-03-24T20:27:59.723Z,10.90
2023-03-24T20:30:28.904Z,10.90
2023-03-24T20:32:57.451Z,10.80
2023-03-24T20:35:25.785Z,10.60
2023-03-24T20:37:53.516Z,10.50
2023-03-24T20:40:21.894Z,10.30
2023-03-24T20:42:49.945Z,10.30
2023-03-24T20:45:17.186Z,10.20
2023-03-24T20:47:44.388Z,10.20
2023-03-24T20:50:11.859Z,10.20
2023-03-24T20:52:38.995Z,10.00
2023-03-24T20:55:06.718Z,9.90
2023-03-24T20:57:34.253Z,9.80
2023-03-24T21:00:02.232Z,9.70
2023-03-24T21:02:31.812Z,9.60
2023-03-24T21:04:59.070Z,9.60
2023-03-24T21:07:27.265Z,9.60
2023-03-24T21:09:54.306Z,9.70
2023-03-24T21:12:22.001Z,9.70
2023-03-24T21:14:50.476Z,9.80
2023-03-24T21:17:18.677Z,9.90
2023-03-24T21:19:47.095Z,10.10
2023-03-24T21:22:15.478Z,10.10
2023-03-24T21:24:42.912Z,9.90
2023-03-24T21:27:10.990Z,9.70
2023-03-24T21:29:38.268Z,9.50
2023-03-24T21:32:05.548Z,9.30
2023-03-24T21:34:32.646Z,9.00
2023-03-24T21:37:01.535Z,8.70
2023-03-24T21:39:29.036Z,8.60
2023-03-24T21:41:56.274Z,8.50
2023-03-24T21:44:23.468Z,8.30
2023-03-24T21:46:50.668Z,8.20
2023-03-24T21:49:19.032Z,8.20
2023-03-24T21:51:46.863Z,8.10
2023-03-24T21:54:15.149Z,8.10
2023-03-24T21:56:42.388Z,8.10
2023-03-24T21:59:11.224Z,8.20
2023-03-24T22:01:38.386Z,8.20
2023-03-24T22:04:08.747Z,8.20
2023-03-24T22:06:38.184Z,8.20
2023-03-24T22:09:06.973Z,8.20
2023-03-24T22:11:44.907Z,8.20
2023-03-24T22:14:13.218Z,8.20
2023-03-24T22:16:40.632Z,8.30
2023-03-24T22:19:07.741Z,8.30
2023-03-24T22:21:34.785Z,8.30
2023-03-24T22:24:01.877Z,8.30
2023-03-24T22:26:29.093Z,8.20
2023-03-24T22:28:56.326Z,8.10
2023-03-24T22:31:24.336Z,8.10
2023-03-24T22:33:52.381Z,8.10
2023-03-24T22:36:19.501Z,8.10
2023-03-24T22:38:46.640Z,8.00
2023-03-24T22:41:14.076Z,8.10
2023-03-24T22:43:41.807Z,8.10
2023-03-24T22:46:11.027Z,8.10
2023-03-24T22:48:39.416Z,8.20
2023-03-24T22:51:07.122Z,8.20
2023-03-24T22:53:34.406Z,8.30
2023-03-24T22:56:01.698Z,8.30
2023-03-24T22:58:28.794Z,8.30
2023-03-24T23:00:57.454Z,8.30
2023-03-24T23:03:24.787Z,8.40
2023-03-24T23:05:52.099Z,8.40
2023-03-24T23:08:19.647Z,8.40
2023-03-24T23:10:47.730Z,8.60
2023-03-24T23:13:17.051Z,8.60
2023-03-24T23:15:44.651Z,8.70
2023-03-24T23:18:12.215Z,8.70
2023-03-24T23:20:40.755Z,8.70
2023-03-24T23:23:09.128Z,8.80
2023-03-24T23:25:43.331Z,8.80
2023-03-24T23:28:12.515Z,8.90
2023-03-24T23:30:41.444Z,8.90
2023-03-24T23:33:09.047Z,9.00
2023-03-24T23:35:37.586Z,9.10
2023-03-24T23:38:06.785Z,9.20
2023-03-24T23:40:34.285Z,9.30
2023-03-24T23:43:02.400Z,9.20
2023-03-24T23:45:29.614Z,9.20
2023-03-24T23:47:56.955Z,9.20
2023-03-24T23:50:24.154Z,9.30
2023-03-24T23:52:52.624Z,9.30
2023-03-24T23:55:21.109Z,9.30
2023-03-24T23:57:51.874Z,9.20
